Time;durP1;ratioP1;P1;durP2;ratioP2;P2;SDS_P1;SDS_P2;PMS_P1;PMS_P2;Temp;Humidity;BMP_temperature;BMP_pressure;BME280_temperature;BME280_humidity;BME280_pressure;Samples;Min_cycle;Max_cycle;Signal;HPM_P1;HPM_P2
2022/03/18 00:00:45;;;;;;;23.52;15.15;;;4.60;76.20;;;;;;5006614;28;20555;-77
2022/03/18 00:03:11;;;;;;;28.30;17.85;;;4.50;76.10;;;;;;5026733;28;20038;-78
2022/03/18 00:05:37;;;;;;;26.13;16.55;;;4.50;76.00;;;;;;5022001;28;20033;-78
2022/03/18 00:08:06;;;;;;;28.92;17.70;;;4.40;76.20;;;;;;5029903;28;20032;-76
2022/03/18 00:10:33;;;;;;;27.05;17.73;;;4.40;76.30;;;;;;5026173;28;20029;-77
2022/03/18 00:12:58;;;;;;;24.52;17.38;;;4.30;76.40;;;;;;5032607;28;20500;-77
2022/03/18 00:15:25;;;;;;;28.83;18.42;;;4.30;76.50;;;;;;5017989;28;20033;-78
2022/03/18 00:17:51;;;;;;;28.88;18.45;;;4.30;76.60;;;;;;5026430;28;20030;-77
2022/03/18 00:20:17;;;;;;;29.17;18.00;;;4.20;76.60;;;;;;5023326;28;20049;-79
2022/03/18 00:22:44;;;;;;;24.27;16.00;;;4.20;76.60;;;;;;5023319;28;20106;-78
2022/03/18 00:25:11;;;;;;;25.80;16.27;;;4.20;76.70;;;;;;5028161;28;20034;-78
2022/03/18 00:27:38;;;;;;;22.85;17.20;;;4.20;76.80;;;;;;5025890;28;20025;-79
2022/03/18 00:30:05;;;;;;;29.65;18.10;;;4.20;76.70;;;;;;5024907;28;20116;-79
2022/03/18 00:32:32;;;;;;;24.75;16.40;;;4.20;76.60;;;;;;5028690;28;20075;-77
2022/03/18 00:34:59;;;;;;;27.50;16.40;;;4.20;76.80;;;;;;5026371;28;20047;-78
2022/03/18 00:37:25;;;;;;;24.48;16.10;;;4.10;76.80;;;;;;5019527;28;20249;-78
2022/03/18 00:39:50;;;;;;;26.40;16.90;;;4.10;76.80;;;;;;5023582;28;20041;-77
2022/03/18 00:42:16;;;;;;;25.38;16.98;;;4.10;77.00;;;;;;5027438;28;20606;-76
2022/03/18 00:44:42;;;;;;;25.98;16.67;;;4.10;77.00;;;;;;5023770;28;20048;-78
2022/03/18 00:52:03;;;;;;;24.92;16.95;;;4.00;77.00;;;;;;5022029;28;20041;-80
2022/03/18 00:52:38;;;;;;;24.27;14.32;;;3.90;77.10;;;;;;5045039;28;20508;-78
2022/03/18 00:55:04;;;;;;;26.70;13.95;;;3.90;77.30;;;;;;5024073;28;20133;-79
2022/03/18 00:57:30;;;;;;;19.92;13.57;;;3.90;77.40;;;;;;5024316;28;20033;-80
2022/03/18 00:59:56;;;;;;;20.75;12.95;;;3.90;77.50;;;;;;5027773;28;20477;-79
2022/03/18 01:02:22;;;;;;;21.73;12.70;;;3.90;77.50;;;;;;5022679;28;20037;-80
2022/03/18 01:04:49;;;;;;;19.70;12.90;;;3.90;77.70;;;;;;5025377;28;20393;-78
2022/03/18 01:07:16;;;;;;;26.88;14.27;;;3.90;77.60;;;;;;5021762;28;20044;-79
2022/03/18 01:09:42;;;;;;;20.92;13.65;;;3.90;77.50;;;;;;5022321;28;20046;-78
2022/03/18 01:12:08;;;;;;;22.83;12.68;;;3.80;77.50;;;;;;5033171;28;20037;-79
2022/03/18 01:14:34;;;;;;;23.15;14.25;;;3.70;77.70;;;;;;5027378;28;20033;-79
2022/03/18 01:17:00;;;;;;;22.13;13.80;;;3.70;78.00;;;;;;5020710;28;20043;-78
2022/03/18 01:19:25;;;;;;;23.92;13.82;;;3.60;78.40;;;;;;5026481;28;20052;-77
2022/03/18 01:21:51;;;;;;;25.35;15.60;;;3.60;78.60;;;;;;5020958;28;20068;-78
2022/03/18 01:24:17;;;;;;;23.60;15.68;;;3.60;78.20;;;;;;5021707;28;20081;-78
2022/03/18 01:26:42;;;;;;;23.90;16.98;;;3.60;78.30;;;;;;5019347;28;20069;-78
2022/03/18 01:29:08;;;;;;;23.52;16.02;;;3.60;78.40;;;;;;5025280;28;20413;-78
2022/03/18 01:31:34;;;;;;;24.58;17.05;;;3.50;78.50;;;;;;5022173;28;20113;-79
2022/03/18 01:34:00;;;;;;;28.17;16.83;;;3.50;78.60;;;;;;5031273;28;20102;-78
2022/03/18 01:36:26;;;;;;;26.75;16.75;;;3.50;78.60;;;;;;5018395;28;20503;-78
2022/03/18 01:38:52;;;;;;;28.10;17.65;;;3.50;78.70;;;;;;5022208;28;20037;-76
2022/03/18 01:41:17;;;;;;;25.55;15.50;;;3.40;78.60;;;;;;5021922;28;20051;-77
2022/03/18 01:43:45;;;;;;;26.08;16.60;;;3.40;78.90;;;;;;5018606;28;20061;-77
2022/03/18 01:46:12;;;;;;;23.85;16.52;;;3.40;79.00;;;;;;5022892;28;20326;-76
2022/03/18 01:48:38;;;;;;;24.17;15.93;;;3.40;79.10;;;;;;5031469;28;20398;-78
2022/03/18 01:51:04;;;;;;;19.60;14.95;;;3.40;79.20;;;;;;5024995;28;20033;-76
2022/03/18 01:53:32;;;;;;;20.00;12.85;;;3.40;79.30;;;;;;5019529;28;20065;-78
2022/03/18 01:55:58;;;;;;;21.35;13.52;;;3.40;79.30;;;;;;5019114;28;20037;-76
2022/03/18 01:58:24;;;;;;;17.70;12.25;;;3.40;79.40;;;;;;5017809;28;20040;-76
2022/03/18 02:00:50;;;;;;;22.98;13.50;;;3.40;79.30;;;;;;5018328;28;20057;-78
2022/03/18 02:03:15;;;;;;;19.58;13.35;;;3.40;79.30;;;;;;5023403;28;20039;-77
2022/03/18 02:05:43;;;;;;;20.65;13.30;;;3.40;79.40;;;;;;5015893;28;20041;-77
2022/03/18 02:08:09;;;;;;;21.15;13.02;;;3.40;79.50;;;;;;5019346;28;20057;-76
2022/03/18 02:10:35;;;;;;;20.30;13.90;;;3.40;79.60;;;;;;5017295;28;20044;-79
2022/03/18 02:13:01;;;;;;;22.42;13.85;;;3.40;79.60;;;;;;5024270;28;20396;-77
2022/03/18 02:15:27;;;;;;;22.55;14.48;;;3.30;79.70;;;;;;5019593;28;20368;-78
2022/03/18 02:17:52;;;;;;;23.20;14.38;;;3.20;79.70;;;;;;5017054;28;20120;-78
2022/03/18 02:20:19;;;;;;;19.58;13.40;;;3.20;79.90;;;;;;5030772;28;20097;-77
2022/03/18 02:22:45;;;;;;;21.38;14.32;;;3.10;79.70;;;;;;5026990;28;20125;-78
2022/03/18 02:25:12;;;;;;;21.83;15.25;;;3.00;80.30;;;;;;5017388;28;20764;-77
2022/03/18 02:27:39;;;;;;;20.83;15.57;;;2.90;80.30;;;;;;5020537;28;20037;-78
2022/03/18 02:30:09;;;;;;;22.90;16.40;;;2.90;80.50;;;;;;5020957;28;20033;-77
2022/03/18 02:32:35;;;;;;;21.73;16.23;;;2.90;80.70;;;;;;5028733;28;20038;-76
2022/03/18 02:35:01;;;;;;;22.33;15.88;;;2.90;80.90;;;;;;5024765;28;20393;-79
2022/03/18 02:37:28;;;;;;;23.05;16.30;;;2.90;81.00;;;;;;5018124;28;20481;-79
2022/03/18 02:39:58;;;;;;;24.60;16.05;;;2.90;81.10;;;;;;5021460;28;20041;-79
2022/03/18 02:42:24;;;;;;;23.20;16.70;;;2.90;81.10;;;;;;5017528;28;20040;-77
2022/03/18 02:44:50;;;;;;;22.95;15.77;;;2.90;81.10;;;;;;5019657;28;20033;-77
2022/03/18 02:47:16;;;;;;;23.05;16.73;;;2.90;81.10;;;;;;5017742;28;20930;-78
2022/03/18 02:49:42;;;;;;;26.70;17.63;;;2.90;81.00;;;;;;5024152;28;20348;-77
2022/03/18 02:52:07;;;;;;;25.10;16.08;;;2.80;80.90;;;;;;5023789;28;20567;-77
2022/03/18 02:54:34;;;;;;;23.08;16.95;;;2.80;80.90;;;;;;5028436;28;20643;-78
2022/03/18 02:57:00;;;;;;;25.05;16.65;;;2.80;81.00;;;;;;5017958;28;20499;-78
2022/03/18 02:59:26;;;;;;;28.02;17.38;;;2.80;81.10;;;;;;5015980;28;20050;-77
2022/03/18 03:01:52;;;;;;;23.33;17.02;;;2.80;81.30;;;;;;5020058;28;20480;-78
2022/03/18 03:04:18;;;;;;;25.25;17.25;;;2.80;81.30;;;;;;5024287;28;20444;-76
2022/03/18 03:09:27;;;;;;;23.45;16.15;;;2.70;81.30;;;;;;5020576;28;20044;-78
2022/03/18 03:11:53;;;;;;;25.35;16.98;;;2.70;81.40;;;;;;5021827;28;20037;-77
2022/03/18 03:14:19;;;;;;;26.88;17.10;;;2.70;81.60;;;;;;5027059;28;20046;-77
2022/03/18 03:16:44;;;;;;;24.52;16.73;;;2.70;81.90;;;;;;5020107;28;20072;-78
2022/03/18 03:19:10;;;;;;;24.75;16.70;;;2.70;82.00;;;;;;5016003;28;20619;-77
2022/03/18 03:21:37;;;;;;;22.65;16.08;;;2.70;82.10;;;;;;5017828;28;20029;-77
2022/03/18 03:24:03;;;;;;;22.75;16.15;;;2.70;81.90;;;;;;5017495;28;20083;-77
2022/03/18 03:26:29;;;;;;;21.70;15.93;;;2.70;81.90;;;;;;5025598;28;20034;-77
2022/03/18 03:28:54;;;;;;;21.15;15.57;;;2.60;81.80;;;;;;5016411;28;20053;-78
2022/03/18 03:31:20;;;;;;;25.23;15.82;;;2.70;82.00;;;;;;5017243;28;20041;-77
2022/03/18 03:33:46;;;;;;;20.95;15.27;;;2.70;82.00;;;;;;5023649;28;20029;-78
2022/03/18 03:36:11;;;;;;;20.30;15.68;;;2.70;81.90;;;;;;5017553;28;20480;-78
2022/03/18 03:38:37;;;;;;;22.52;16.27;;;2.70;81.90;;;;;;5019660;28;20021;-77
2022/03/18 03:41:04;;;;;;;21.73;15.07;;;2.60;82.00;;;;;;5019394;28;20144;-77
2022/03/18 03:43:30;;;;;;;22.80;15.90;;;2.60;82.00;;;;;;5016994;28;20108;-78
2022/03/18 03:45:56;;;;;;;20.90;16.17;;;2.60;82.00;;;;;;5019215;28;20064;-77
2022/03/18 03:48:22;;;;;;;21.92;14.85;;;2.60;82.00;;;;;;5016378;28;20060;-77
2022/03/18 03:50:48;;;;;;;21.98;15.88;;;2.60;81.90;;;;;;5024708;28;20037;-76
2022/03/18 03:53:14;;;;;;;21.52;15.52;;;2.50;81.80;;;;;;5019137;28;20499;-77
2022/03/18 03:55:40;;;;;;;22.20;16.10;;;2.40;81.80;;;;;;5019578;28;20068;-75
2022/03/18 03:58:07;;;;;;;22.90;15.45;;;2.40;81.90;;;;;;5017752;28;20041;-77
2022/03/18 04:00:33;;;;;;;21.75;15.38;;;2.40;82.10;;;;;;5022170;28;20804;-77
2022/03/18 04:02:59;;;;;;;20.35;15.45;;;2.40;82.30;;;;;;5037087;28;20128;-76
2022/03/18 04:05:24;;;;;;;25.40;16.55;;;2.40;82.50;;;;;;5021638;28;20040;-76
2022/03/18 04:07:50;;;;;;;22.20;16.25;;;2.40;82.00;;;;;;5028506;28;20034;-76
2022/03/18 04:10:16;;;;;;;21.45;15.75;;;2.30;82.00;;;;;;5023084;28;20088;-76
2022/03/18 04:12:43;;;;;;;24.25;16.50;;;2.30;82.00;;;;;;5026506;28;20064;-76
2022/03/18 04:15:09;;;;;;;22.75;15.77;;;2.30;82.10;;;;;;5018076;28;20068;-77
2022/03/18 04:17:40;;;;;;;20.25;15.88;;;2.30;82.40;;;;;;5027678;28;20029;-77
2022/03/18 04:20:09;;;;;;;21.05;16.23;;;2.30;82.40;;;;;;5024847;28;20480;-77
2022/03/18 04:22:34;;;;;;;24.58;16.42;;;2.30;82.40;;;;;;5015085;28;20101;-76
2022/03/18 04:25:00;;;;;;;23.40;16.35;;;2.20;82.40;;;;;;5023544;28;20063;-77
2022/03/18 04:27:26;;;;;;;22.80;17.02;;;2.20;82.30;;;;;;5029664;28;20025;-79
2022/03/18 04:29:54;;;;;;;24.25;16.80;;;2.20;82.10;;;;;;5019968;28;20036;-77
2022/03/18 04:32:20;;;;;;;24.50;16.50;;;2.20;82.20;;;;;;5023037;28;20037;-78
2022/03/18 04:34:45;;;;;;;24.05;17.38;;;2.10;82.30;;;;;;5018548;28;20036;-77
2022/03/18 04:37:11;;;;;;;23.77;17.50;;;2.10;82.40;;;;;;5025737;28;20045;-77
2022/03/18 04:39:36;;;;;;;20.95;17.17;;;2.10;82.60;;;;;;5018243;28;20047;-77
2022/03/18 04:42:02;;;;;;;29.85;16.92;;;2.20;82.70;;;;;;5027789;28;20427;-76
2022/03/18 04:44:28;;;;;;;27.05;18.33;;;2.10;82.80;;;;;;5029381;28;20035;-77
2022/03/18 04:46:54;;;;;;;25.08;17.80;;;2.20;82.80;;;;;;5025813;28;20037;-77
2022/03/18 04:49:20;;;;;;;25.92;17.48;;;2.10;82.80;;;;;;5018928;28;20037;-77
2022/03/18 04:51:45;;;;;;;25.98;17.17;;;2.10;82.70;;;;;;5030863;28;20476;-76
2022/03/18 04:54:11;;;;;;;25.83;17.88;;;2.10;82.80;;;;;;5023406;28;20033;-78
2022/03/18 04:59:22;;;;;;;24.50;17.63;;;2.10;83.00;;;;;;5018789;28;20044;-76
2022/03/18 05:01:48;;;;;;;26.00;17.48;;;2.10;83.00;;;;;;5021603;28;20086;-76
2022/03/18 05:04:13;;;;;;;24.50;17.05;;;2.10;83.00;;;;;;5021829;28;20029;-77
2022/03/18 05:06:39;;;;;;;25.08;18.52;;;2.10;83.10;;;;;;5026755;28;20076;-78
2022/03/18 05:09:05;;;;;;;26.58;18.35;;;2.10;83.00;;;;;;5022766;28;20075;-78
2022/03/18 05:11:31;;;;;;;24.83;18.00;;;2.00;82.80;;;;;;5025770;28;20033;-79
2022/03/18 05:13:58;;;;;;;26.63;18.58;;;2.00;82.80;;;;;;5018796;28;20380;-77
2022/03/18 05:16:25;;;;;;;27.27;17.05;;;2.00;82.90;;;;;;5019138;28;20038;-77
2022/03/18 05:18:51;;;;;;;25.08;16.63;;;1.90;83.00;;;;;;5017648;28;20483;-77
2022/03/18 05:21:17;;;;;;;27.27;18.35;;;1.90;83.00;;;;;;5019700;28;20091;-76
2022/03/18 05:23:43;;;;;;;29.08;18.48;;;1.90;83.10;;;;;;5013733;28;20428;-76
2022/03/18 05:26:08;;;;;;;29.35;18.83;;;1.90;83.20;;;;;;5018447;28;20038;-78
2022/03/18 05:28:35;;;;;;;27.38;16.83;;;1.90;83.30;;;;;;5020254;28;20104;-77
2022/03/18 05:31:00;;;;;;;23.73;16.55;;;1.90;83.30;;;;;;5021236;28;20040;-77
2022/03/18 05:33:26;;;;;;;26.13;15.93;;;1.90;83.30;;;;;;5024267;28;20053;-77
2022/03/18 05:35:52;;;;;;;24.02;15.48;;;2.00;83.40;;;;;;5022443;28;20049;-79
2022/03/18 05:38:18;;;;;;;22.35;16.80;;;1.90;83.40;;;;;;5020674;28;20580;-77
2022/03/18 05:40:43;;;;;;;25.35;17.35;;;1.90;83.40;;;;;;5020203;28;20528;-76
2022/03/18 05:43:09;;;;;;;26.58;18.45;;;1.90;83.40;;;;;;5027790;28;20538;-77
2022/03/18 05:45:35;;;;;;;25.67;18.17;;;1.90;83.40;;;;;;5039400;28;20041;-79
2022/03/18 05:48:00;;;;;;;23.80;17.15;;;1.90;83.40;;;;;;5027037;28;20048;-77
2022/03/18 05:50:26;;;;;;;25.35;18.25;;;1.90;83.50;;;;;;5022799;28;20052;-79
2022/03/18 05:52:52;;;;;;;31.60;20.02;;;1.90;83.60;;;;;;5047589;28;20181;-78
2022/03/18 05:55:18;;;;;;;28.83;19.80;;;1.90;83.70;;;;;;5042141;28;20116;-78
2022/03/18 05:57:44;;;;;;;28.50;18.10;;;1.90;83.70;;;;;;5044809;28;20025;-78
2022/03/18 06:00:10;;;;;;;32.38;20.13;;;1.90;83.70;;;;;;5020661;28;20049;-77
2022/03/18 06:02:36;;;;;;;31.60;20.98;;;1.90;83.60;;;;;;5025944;28;20040;-77
2022/03/18 06:05:02;;;;;;;32.72;21.88;;;1.90;83.60;;;;;;5021468;28;20341;-77
2022/03/18 06:07:28;;;;;;;31.42;22.67;;;2.00;83.60;;;;;;5018997;28;20049;-77
2022/03/18 06:12:38;;;;;;;26.42;19.48;;;2.00;83.60;;;;;;5019408;28;20573;-77
2022/03/18 06:15:04;;;;;;;28.05;19.48;;;2.00;83.60;;;;;;5016468;28;20455;-78
2022/03/18 06:17:29;;;;;;;28.20;18.92;;;2.10;83.60;;;;;;5018604;28;20051;-77
2022/03/18 06:19:55;;;;;;;25.52;19.13;;;2.10;83.60;;;;;;5017414;28;20061;-79
2022/03/18 06:22:21;;;;;;;30.20;19.25;;;2.10;83.50;;;;;;5021323;28;20491;-79
2022/03/18 06:24:46;;;;;;;27.67;18.85;;;2.10;83.50;;;;;;5020138;28;20259;-78
2022/03/18 06:27:12;;;;;;;28.73;19.40;;;2.10;83.60;;;;;;5014932;28;20037;-77
2022/03/18 06:29:42;;;;;;;24.77;17.65;;;2.10;83.60;;;;;;5017926;28;20485;-77
2022/03/18 06:32:09;;;;;;;23.55;16.75;;;2.10;83.80;;;;;;5020851;28;20037;-77
2022/03/18 06:34:38;;;;;;;25.88;18.38;;;2.10;83.80;;;;;;5018264;28;20045;-78
2022/03/18 06:37:04;;;;;;;26.92;18.83;;;2.20;84.00;;;;;;5014873;28;20091;-77
2022/03/18 06:39:29;;;;;;;28.35;17.73;;;2.50;83.90;;;;;;5019028;28;20045;-78
2022/03/18 06:41:56;;;;;;;26.02;17.27;;;2.80;83.30;;;;;;5028966;28;20035;-77
2022/03/18 06:44:22;;;;;;;25.42;16.30;;;3.30;82.50;;;;;;5023241;28;20041;-78
2022/03/18 06:46:48;;;;;;;23.77;16.65;;;4.10;81.00;;;;;;5017142;28;20560;-78
2022/03/18 06:49:14;;;;;;;22.80;17.40;;;4.80;78.80;;;;;;5017891;28;20030;-78
2022/03/18 06:51:40;;;;;;;22.13;16.02;;;5.60;75.50;;;;;;5020349;28;20045;-79
2022/03/18 06:54:05;;;;;;;21.98;16.45;;;6.00;73.20;;;;;;5022207;28;20045;-77
2022/03/18 06:56:32;;;;;;;24.10;17.60;;;6.30;71.50;;;;;;5020109;28;20033;-78
2022/03/18 06:58:58;;;;;;;24.52;16.85;;;6.10;71.50;;;;;;5017883;28;20092;-77
2022/03/18 07:01:24;;;;;;;21.30;16.38;;;5.70;72.40;;;;;;5016451;28;20045;-77
2022/03/18 07:03:50;;;;;;;24.75;17.77;;;5.30;73.60;;;;;;5025794;28;20061;-77
2022/03/18 07:06:16;;;;;;;22.85;16.50;;;5.00;74.90;;;;;;5018447;28;20033;-78
2022/03/18 07:08:41;;;;;;;22.90;17.98;;;4.90;76.10;;;;;;5021692;28;20033;-78
2022/03/18 07:11:07;;;;;;;27.10;18.13;;;4.60;76.90;;;;;;5018976;28;20481;-78
2022/03/18 07:13:33;;;;;;;27.58;19.10;;;4.60;77.80;;;;;;5017374;28;20193;-80
2022/03/18 07:17:54;;;;;;;22.65;17.70;;;4.60;78.40;;;;;;5022283;28;20502;-76
2022/03/18 07:18:45;;;;;;;24.88;19.05;;;4.50;78.90;;;;;;5019261;28;20033;-77
2022/03/18 07:21:11;;;;;;;24.30;18.48;;;4.50;79.10;;;;;;5017336;28;20044;-77
2022/03/18 07:23:37;;;;;;;25.73;18.25;;;4.50;79.20;;;;;;5024683;28;20034;-77
2022/03/18 07:26:03;;;;;;;27.33;19.17;;;4.50;79.40;;;;;;5031150;28;20036;-76
2022/03/18 07:28:28;;;;;;;26.70;19.65;;;4.50;79.80;;;;;;5024631;28;20496;-77
2022/03/18 07:30:54;;;;;;;24.77;17.90;;;4.50;80.20;;;;;;5026097;28;20037;-77
2022/03/18 07:33:19;;;;;;;25.70;18.88;;;4.60;80.30;;;;;;5030504;28;20163;-77
2022/03/18 07:35:45;;;;;;;28.33;19.02;;;4.60;80.50;;;;;;5023254;28;20164;-77
2022/03/18 07:38:11;;;;;;;27.15;17.92;;;4.70;80.50;;;;;;5023145;28;20095;-75
2022/03/18 07:40:37;;;;;;;26.98;17.70;;;4.70;80.40;;;;;;5024441;28;20481;-75
2022/03/18 07:43:03;;;;;;;27.50;18.05;;;4.80;80.20;;;;;;5023142;28;20030;-76
2022/03/18 07:45:30;;;;;;;29.40;18.70;;;4.90;79.90;;;;;;5017999;28;20083;-78
2022/03/18 07:47:58;;;;;;;25.58;17.35;;;5.00;80.10;;;;;;5022129;28;20341;-75
2022/03/18 07:50:26;;;;;;;29.38;18.20;;;5.10;80.00;;;;;;5024147;28;20123;-75
2022/03/18 07:52:54;;;;;;;25.23;17.30;;;5.20;79.50;;;;;;5023397;28;20539;-75
2022/03/18 07:55:23;;;;;;;26.05;17.90;;;5.40;78.80;;;;;;5027023;28;20590;-75
2022/03/18 07:57:49;;;;;;;25.55;19.05;;;5.60;78.70;;;;;;5022548;28;20034;-77
2022/03/18 08:00:16;;;;;;;25.80;17.95;;;5.80;78.60;;;;;;5029325;28;20120;-76
2022/03/18 08:02:43;;;;;;;25.80;15.82;;;6.00;77.10;;;;;;5024079;28;20405;-76
2022/03/18 08:05:09;;;;;;;24.27;16.20;;;6.20;77.10;;;;;;5034597;28;20590;-76
2022/03/18 08:07:36;;;;;;;20.83;14.60;;;6.40;75.80;;;;;;5031512;28;20044;-75
2022/03/18 08:10:04;;;;;;;20.50;15.23;;;6.60;74.80;;;;;;5021974;28;20037;-76
2022/03/18 08:12:31;;;;;;;19.48;15.77;;;6.80;73.90;;;;;;5022210;28;20901;-75
2022/03/18 08:15:06;;;;;;;25.75;16.52;;;7.10;74.60;;;;;;5020425;28;20045;-75
2022/03/18 08:17:33;;;;;;;20.00;14.15;;;7.50;74.00;;;;;;5019168;28;20045;-78
2022/03/18 08:19:59;;;;;;;20.05;13.30;;;7.60;71.80;;;;;;5024618;28;20037;-78
2022/03/18 08:22:26;;;;;;;20.75;13.65;;;7.90;71.40;;;;;;5022902;28;20135;-76
2022/03/18 08:24:52;;;;;;;20.70;12.68;;;8.10;70.70;;;;;;5025963;28;20035;-76
2022/03/18 08:27:19;;;;;;;18.90;11.57;;;8.30;69.90;;;;;;5024630;28;20125;-76
2022/03/18 08:29:48;;;;;;;17.85;11.60;;;8.60;69.30;;;;;;5023913;28;20043;-80
2022/03/18 08:32:17;;;;;;;20.92;10.70;;;8.90;69.30;;;;;;5027655;28;20048;-76
2022/03/18 08:34:43;;;;;;;16.63;10.52;;;9.20;68.90;;;;;;5023825;28;20799;-77
2022/03/18 08:37:10;;;;;;;17.02;10.02;;;9.50;68.10;;;;;;5028112;28;20049;-77
2022/03/18 08:39:41;;;;;;;16.00;9.70;;;9.70;67.00;;;;;;5021984;28;20037;-82
2022/03/18 08:42:07;;;;;;;17.27;7.93;;;9.90;66.20;;;;;;5027465;28;20069;-79
2022/03/18 08:44:33;;;;;;;15.20;8.23;;;10.10;64.10;;;;;;5021803;28;20040;-78
2022/03/18 08:47:00;;;;;;;12.55;7.68;;;10.00;62.20;;;;;;5023137;28;20053;-78
2022/03/18 08:49:26;;;;;;;18.00;8.07;;;10.20;63.20;;;;;;5018659;28;20023;-78
2022/03/18 08:51:52;;;;;;;14.65;7.28;;;10.40;62.50;;;;;;5032390;28;20076;-77
2022/03/18 08:54:21;;;;;;;11.48;6.63;;;10.50;60.70;;;;;;5021025;28;20033;-78
2022/03/18 08:56:48;;;;;;;14.82;6.90;;;10.70;60.90;;;;;;5033044;28;20038;-78
2022/03/18 08:59:14;;;;;;;14.88;7.57;;;10.70;59.50;;;;;;5019557;28;20041;-77
2022/03/18 09:01:40;;;;;;;14.75;7.30;;;10.80;59.70;;;;;;5022856;28;20042;-77
2022/03/18 09:04:06;;;;;;;14.38;7.53;;;10.90;58.00;;;;;;5023390;28;20582;-76
2022/03/18 09:06:32;;;;;;;15.05;6.85;;;10.70;58.10;;;;;;5029648;28;20462;-75
2022/03/18 09:09:02;;;;;;;12.52;6.95;;;10.90;58.20;;;;;;5021770;28;20025;-77
2022/03/18 09:11:29;;;;;;;11.07;5.53;;;10.90;57.60;;;;;;5020305;28;20037;-75
2022/03/18 09:13:54;;;;;;;14.15;6.82;;;11.00;56.40;;;;;;5026918;28;20034;-76
2022/03/18 09:16:20;;;;;;;13.57;6.30;;;11.00;57.60;;;;;;5016917;28;20030;-74
2022/03/18 09:18:46;;;;;;;13.82;6.35;;;11.00;57.20;;;;;;5020818;28;20034;-76
2022/03/18 09:21:13;;;;;;;13.32;5.78;;;11.30;56.40;;;;;;5019435;28;20068;-79
2022/03/18 09:23:39;;;;;;;14.13;6.57;;;11.50;55.50;;;;;;5020456;28;20119;-76
2022/03/18 09:26:05;;;;;;;11.40;5.57;;;11.60;55.60;;;;;;5016617;28;20497;-76
2022/03/18 09:28:31;;;;;;;13.20;6.05;;;11.80;54.80;;;;;;5026842;28;20112;-76
2022/03/18 09:30:57;;;;;;;14.90;6.32;;;12.00;54.20;;;;;;5021970;28;20120;-76
2022/03/18 09:33:23;;;;;;;15.13;6.07;;;12.10;53.30;;;;;;5009580;28;20044;-76
2022/03/18 09:35:49;;;;;;;14.82;6.53;;;12.10;54.20;;;;;;5020492;28;20042;-77
2022/03/18 09:38:15;;;;;;;14.95;5.95;;;12.00;53.10;;;;;;5031030;28;20498;-78
2022/03/18 09:40:42;;;;;;;12.43;5.35;;;12.00;53.60;;;;;;5025426;28;20454;-78
2022/03/18 09:43:09;;;;;;;13.27;5.72;;;12.20;52.70;;;;;;5022818;28;20029;-78
2022/03/18 09:45:38;;;;;;;13.98;5.95;;;12.50;53.80;;;;;;5023712;28;20040;-77
2022/03/18 09:48:09;;;;;;;14.57;5.70;;;12.50;50.20;;;;;;5039629;28;20117;-77
2022/03/18 09:50:36;;;;;;;12.07;5.40;;;12.00;51.40;;;;;;5023283;28;20200;-77
2022/03/18 09:53:03;;;;;;;18.08;6.22;;;12.00;51.60;;;;;;5014049;28;20403;-77
2022/03/18 09:55:35;;;;;;;12.45;5.63;;;12.40;53.20;;;;;;5019288;28;20116;-77
2022/03/18 09:58:02;;;;;;;13.07;5.45;;;12.80;52.20;;;;;;5020616;28;20030;-77
2022/03/18 10:00:29;;;;;;;12.02;5.43;;;12.80;48.80;;;;;;5021338;28;20041;-78
2022/03/18 10:03:10;;;;;;;11.45;4.60;;;12.60;50.10;;;;;;5023430;28;20072;-78
2022/03/18 10:05:46;;;;;;;13.38;4.95;;;13.10;48.60;;;;;;5016569;28;20442;-77
2022/03/18 10:08:12;;;;;;;10.38;4.90;;;13.20;46.60;;;;;;5022834;28;20107;-75
2022/03/18 10:10:46;;;;;;;10.15;4.43;;;13.40;46.40;;;;;;5021338;28;20029;-76
2022/03/18 10:13:13;;;;;;;10.90;4.43;;;13.10;45.70;;;;;;5027772;28;20026;-77
2022/03/18 10:15:39;;;;;;;10.25;4.50;;;13.10;45.30;;;;;;5021086;28;20377;-77
2022/03/18 10:18:09;;;;;;;9.45;4.68;;;12.80;46.70;;;;;;5015842;28;20866;-75
2022/03/18 10:20:40;;;;;;;8.05;4.40;;;12.80;45.90;;;;;;5025644;28;20449;-78
2022/03/18 10:23:15;;;;;;;9.77;4.65;;;12.80;46.60;;;;;;5019964;28;20365;-77
2022/03/18 10:25:42;;;;;;;8.52;4.30;;;13.10;47.00;;;;;;5020637;28;20344;-77
2022/03/18 10:28:10;;;;;;;9.50;4.03;;;13.40;44.50;;;;;;5016136;28;20361;-79
2022/03/18 10:30:36;;;;;;;10.73;4.90;;;13.20;45.60;;;;;;5017515;28;20037;-77
2022/03/18 10:33:03;;;;;;;9.77;4.55;;;13.00;44.50;;;;;;5020544;28;20080;-77
2022/03/18 10:38:34;;;;;;;10.20;4.20;;;13.50;44.60;;;;;;5022752;28;20051;-77
2022/03/18 10:41:07;;;;;;;10.73;4.25;;;13.50;44.00;;;;;;5031447;28;20056;-76
2022/03/18 10:43:54;;;;;;;12.23;3.95;;;13.50;43.80;;;;;;5019890;28;20598;-77
2022/03/18 10:46:20;;;;;;;;;;;13.60;44.20;;;;;;5016953;28;20045;-77
2022/03/18 10:49:05;;;;;;;9.80;4.03;;;13.70;44.40;;;;;;5016722;28;19909;-76
2022/03/18 10:51:33;;;;;;;10.05;4.07;;;13.90;44.30;;;;;;5029726;28;20041;-76
2022/03/18 10:54:00;;;;;;;11.40;4.45;;;14.10;44.90;;;;;;5022080;28;20325;-77
2022/03/18 10:56:26;;;;;;;9.70;4.22;;;14.30;43.80;;;;;;5017545;28;20140;-78
2022/03/18 10:58:54;;;;;;;10.90;3.70;;;14.20;43.10;;;;;;5020622;28;20040;-76
2022/03/18 11:01:22;;;;;;;9.98;4.15;;;14.30;44.20;;;;;;5016923;28;20140;-76
2022/03/18 11:03:48;;;;;;;10.15;5.05;;;14.40;43.30;;;;;;5023583;28;20032;-78
2022/03/18 11:06:16;;;;;;;11.30;4.53;;;14.00;45.10;;;;;;5021229;28;20030;-80
2022/03/18 11:08:47;;;;;;;9.80;4.05;;;14.10;45.30;;;;;;5018701;28;20514;-76
2022/03/18 11:11:15;;;;;;;10.65;4.60;;;14.50;45.20;;;;;;5022717;28;20393;-75
2022/03/18 11:14:04;;;;;;;12.68;4.75;;;14.60;44.30;;;;;;5021644;28;20582;-77
2022/03/18 11:16:33;;;;;;;9.52;5.15;;;14.80;44.00;;;;;;5014483;28;20041;-77
2022/03/18 11:19:01;;;;;;;14.43;4.93;;;15.10;44.60;;;;;;5011400;28;20026;-77
2022/03/18 11:21:38;;;;;;;10.27;5.40;;;15.20;43.30;;;;;;5024031;28;20144;-80
2022/03/18 11:24:14;;;;;;;9.73;4.70;;;15.30;43.10;;;;;;5019140;28;20083;-75
2022/03/18 11:26:51;;;;;;;9.65;4.45;;;15.00;43.20;;;;;;5026284;28;20033;-76
2022/03/18 11:29:23;;;;;;;12.27;4.57;;;14.90;44.90;;;;;;5016539;28;20037;-78
2022/03/18 11:32:12;;;;;;;14.32;4.88;;;15.00;44.80;;;;;;5015279;28;20711;-78
2022/03/18 11:34:50;;;;;;;10.90;4.63;;;14.60;44.70;;;;;;5012065;28;20427;-78
2022/03/18 11:37:17;;;;;;;11.82;5.38;;;14.60;44.20;;;;;;5011107;28;20113;-78
2022/03/18 11:39:43;;;;;;;10.90;4.68;;;14.70;44.60;;;;;;5011497;28;20042;-79
2022/03/18 11:42:09;;;;;;;10.70;4.47;;;14.90;45.00;;;;;;5011862;28;20126;-76
2022/03/18 11:44:49;;;;;;;10.75;4.57;;;15.10;44.70;;;;;;5011603;28;20042;-79
2022/03/18 11:47:33;;;;;;;9.43;4.32;;;15.30;43.70;;;;;;5014631;28;20045;-79
2022/03/18 11:50:01;;;;;;;13.68;4.65;;;15.30;43.90;;;;;;5015435;28;20098;-75
2022/03/18 11:52:27;;;;;;;10.73;4.30;;;15.50;43.50;;;;;;5013331;28;20038;-75
2022/03/18 11:54:56;;;;;;;10.32;4.60;;;15.30;43.40;;;;;;5016294;28;21001;-75
2022/03/18 11:57:36;;;;;;;9.27;4.20;;;15.40;43.50;;;;;;5012481;28;20041;-74
2022/03/18 12:00:08;;;;;;;7.97;4.05;;;15.30;42.60;;;;;;5007002;28;20041;-77
2022/03/18 12:02:36;;;;;;;10.05;4.32;;;15.40;44.30;;;;;;5022847;28;20025;-80
2022/03/18 12:05:03;;;;;;;10.88;4.53;;;15.50;43.60;;;;;;5029167;28;20034;-78
2022/03/18 12:07:45;;;;;;;10.63;4.53;;;15.60;43.40;;;;;;5050465;28;20033;-77
2022/03/18 12:10:14;;;;;;;10.88;5.00;;;15.60;43.30;;;;;;5023395;28;20057;-78
2022/03/18 12:12:42;;;;;;;12.48;4.60;;;15.60;42.60;;;;;;5035643;28;20066;-76
2022/03/18 12:15:10;;;;;;;11.10;4.88;;;15.50;43.50;;;;;;5019651;28;20052;-76
2022/03/18 12:17:47;;;;;;;10.82;4.72;;;15.10;42.40;;;;;;5034810;28;20041;-77
2022/03/18 12:20:20;;;;;;;10.43;4.65;;;15.00;44.20;;;;;;5021280;28;20052;-77
2022/03/18 12:22:47;;;;;;;18.48;5.10;;;15.30;43.90;;;;;;5040143;28;20040;-76
2022/03/18 12:25:14;;;;;;;11.77;4.63;;;15.60;43.30;;;;;;5046431;28;20022;-77
2022/03/18 12:27:41;;;;;;;8.75;4.07;;;15.70;43.10;;;;;;5052617;28;20021;-80
2022/03/18 12:30:12;;;;;;;12.52;4.40;;;15.80;43.00;;;;;;5058126;28;20016;-81
2022/03/18 12:32:49;;;;;;;10.02;4.50;;;15.60;42.00;;;;;;5028063;28;20037;-75
2022/03/18 12:35:19;;;;;;;12.93;4.03;;;15.60;42.50;;;;;;5016633;28;20243;-78
2022/03/18 12:37:46;;;;;;;9.75;3.97;;;15.50;41.90;;;;;;5026896;28;20116;-77
2022/03/18 12:40:13;;;;;;;12.57;4.22;;;15.50;42.00;;;;;;5021192;28;20562;-76
2022/03/18 12:42:57;;;;;;;8.27;4.25;;;15.00;41.90;;;;;;5026675;28;20396;-77
2022/03/18 12:45:29;;;;;;;11.48;4.50;;;14.90;41.80;;;;;;5026174;28;20186;-78
2022/03/18 12:48:03;;;;;;;7.75;3.60;;;15.10;42.70;;;;;;5018166;28;20044;-75
2022/03/18 12:50:38;;;;;;;11.32;4.55;;;15.20;41.60;;;;;;5027667;28;20041;-77
2022/03/18 12:53:16;;;;;;;12.18;4.18;;;14.80;42.60;;;;;;5024812;28;20037;-76